sensor_id;sensor_type;location;lat;lon;timestamp;pressure;altitude;pressure_sealevel;temperature;humidity
45467;BME280;31212;49.734;8.490;2023-02-20T00:00:34;101478.47;;;8.51;78.60
45467;BME280;31212;49.734;8.490;2023-02-20T00:03:01;101487.72;;;8.45;78.73
45467;BME280;31212;49.734;8.490;2023-02-20T00:05:28;101494.31;;;8.33;78.84
45467;BME280;31212;49.734;8.490;2023-02-20T00:07:54;101488.94;;;8.27;78.91
45467;BME280;31212;49.734;8.490;2023-02-20T00:10:21;101480.31;;;8.27;78.95
45467;BME280;31212;49.734;8.490;2023-02-20T00:12:48;101461.22;;;8.23;79.14
45467;BME280;31212;49.734;8.490;2023-02-20T00:15:17;101460.94;;;8.14;79.13
45467;BME280;31212;49.734;8.490;2023-02-20T00:17:45;101467.75;;;8.10;78.64
45467;BME280;31212;49.734;8.490;2023-02-20T00:20:13;101463.81;;;7.94;79.34
45467;BME280;31212;49.734;8.490;2023-02-20T00:22:40;101454.28;;;7.93;79.12
45467;BME280;31212;49.734;8.490;2023-02-20T00:25:07;101451.56;;;7.88;78.65
45467;BME280;31212;49.734;8.490;2023-02-20T00:27:33;101445.28;;;7.80;78.85
45467;BME280;31212;49.734;8.490;2023-02-20T00:30:00;101440.53;;;7.65;79.08
45467;BME280;31212;49.734;8.490;2023-02-20T00:32:27;101437.97;;;7.67;78.55
45467;BME280;31212;49.734;8.490;2023-02-20T00:34:54;101427.31;;;7.56;78.86
45467;BME280;31212;49.734;8.490;2023-02-20T00:37:20;101426.84;;;7.42;79.16
45467;BME280;31212;49.734;8.490;2023-02-20T00:39:47;101425.97;;;7.41;78.66
45467;BME280;31212;49.734;8.490;2023-02-20T00:42:13;101418.13;;;7.38;78.35
45467;BME280;31212;49.734;8.490;2023-02-20T00:44:40;101412.66;;;7.29;78.18
45467;BME280;31212;49.734;8.490;2023-02-20T00:47:06;101396.09;;;7.22;78.26
45467;BME280;31212;49.734;8.490;2023-02-20T00:49:34;101391.69;;;7.20;78.52
45467;BME280;31212;49.734;8.490;2023-02-20T00:52:08;101383.69;;;7.12;78.45
45467;BME280;31212;49.734;8.490;2023-02-20T00:54:34;101373.53;;;7.17;78.60
45467;BME280;31212;49.734;8.490;2023-02-20T00:57:00;101370.94;;;7.17;78.60
45467;BME280;31212;49.734;8.490;2023-02-20T00:59:27;101381.78;;;7.06;77.85
45467;BME280;31212;49.734;8.490;2023-02-20T01:01:54;101412.41;;;6.96;79.17
45467;BME280;31212;49.734;8.490;2023-02-20T01:04:20;101422.50;;;6.89;79.20
45467;BME280;31212;49.734;8.490;2023-02-20T01:06:48;101439.81;;;6.92;78.69
45467;BME280;31212;49.734;8.490;2023-02-20T01:09:15;101441.16;;;6.81;79.69
45467;BME280;31212;49.734;8.490;2023-02-20T01:11:42;101455.69;;;6.79;79.66
45467;BME280;31212;49.734;8.490;2023-02-20T01:14:09;101473.50;;;6.71;79.58
45467;BME280;31212;49.734;8.490;2023-02-20T01:16:36;101474.94;;;6.63;79.91
45467;BME280;31212;49.734;8.490;2023-02-20T01:19:03;101496.16;;;6.55;80.62
45467;BME280;31212;49.734;8.490;2023-02-20T01:21:29;101491.28;;;6.63;80.53
45467;BME280;31212;49.734;8.490;2023-02-20T01:23:57;101477.38;;;6.60;80.99
45467;BME280;31212;49.734;8.490;2023-02-20T01:26:24;101483.31;;;6.57;79.99
45467;BME280;31212;49.734;8.490;2023-02-20T01:28:50;101474.28;;;6.46;80.21
45467;BME280;31212;49.734;8.490;2023-02-20T01:31:17;101481.69;;;6.36;80.50
45467;BME280;31212;49.734;8.490;2023-02-20T01:33:44;101481.59;;;6.33;80.17
45467;BME280;31212;49.734;8.490;2023-02-20T01:36:10;101474.06;;;6.39;80.76
45467;BME280;31212;49.734;8.490;2023-02-20T01:38:39;101458.22;;;6.30;80.21
45467;BME280;31212;49.734;8.490;2023-02-20T01:41:07;101446.03;;;6.26;80.33
45467;BME280;31212;49.734;8.490;2023-02-20T01:43:34;101437.19;;;6.19;79.86
45467;BME280;31212;49.734;8.490;2023-02-20T01:49:05;101402.25;;;6.03;79.71
45467;BME280;31212;49.734;8.490;2023-02-20T01:51:34;101386.59;;;5.99;79.41
45467;BME280;31212;49.734;8.490;2023-02-20T01:54:03;101377.72;;;5.92;79.24
45467;BME280;31212;49.734;8.490;2023-02-20T01:56:34;101380.25;;;5.90;79.47
45467;BME280;31212;49.734;8.490;2023-02-20T01:59:02;101379.13;;;5.84;78.92
45467;BME280;31212;49.734;8.490;2023-02-20T02:01:30;101379.03;;;5.81;79.18
45467;BME280;31212;49.734;8.490;2023-02-20T02:03:59;101385.66;;;5.74;79.61
45467;BME280;31212;49.734;8.490;2023-02-20T02:06:27;101405.19;;;5.69;79.93
45467;BME280;31212;49.734;8.490;2023-02-20T02:08:58;101403.56;;;5.71;79.67
45467;BME280;31212;49.734;8.490;2023-02-20T02:11:27;101399.44;;;5.76;79.99
45467;BME280;31212;49.734;8.490;2023-02-20T02:13:55;101387.31;;;5.73;79.61
45467;BME280;31212;49.734;8.490;2023-02-20T02:16:29;101385.06;;;5.81;79.09
45467;BME280;31212;49.734;8.490;2023-02-20T02:19:04;101376.03;;;5.93;78.96
45467;BME280;31212;49.734;8.490;2023-02-20T02:21:50;101349.97;;;5.85;79.14
45467;BME280;31212;49.734;8.490;2023-02-20T02:25:06;101364.13;;;5.73;78.86
45467;BME280;31212;49.734;8.490;2023-02-20T02:28:07;101358.56;;;5.63;79.42
45467;BME280;31212;49.734;8.490;2023-02-20T02:31:20;101359.97;;;5.54;79.71
45467;BME280;31212;49.734;8.490;2023-02-20T02:34:22;101363.41;;;5.53;79.37
45467;BME280;31212;49.734;8.490;2023-02-20T02:37:02;101380.22;;;5.45;79.95
45467;BME280;31212;49.734;8.490;2023-02-20T02:39:35;101416.53;;;5.51;80.36
45467;BME280;31212;49.734;8.490;2023-02-20T02:42:08;101447.50;;;5.53;80.90
45467;BME280;31212;49.734;8.490;2023-02-20T02:44:42;101482.34;;;5.45;81.70
45467;BME280;31212;49.734;8.490;2023-02-20T02:47:15;101499.53;;;5.44;82.62
45467;BME280;31212;49.734;8.490;2023-02-20T02:49:47;101519.16;;;5.42;83.42
45467;BME280;31212;49.734;8.490;2023-02-20T02:52:20;101529.47;;;5.42;83.34
45467;BME280;31212;49.734;8.490;2023-02-20T02:55:01;101543.31;;;5.44;83.64
45467;BME280;31212;49.734;8.490;2023-02-20T02:57:28;101537.47;;;5.48;83.84
45467;BME280;31212;49.734;8.490;2023-02-20T02:59:59;101552.34;;;5.55;83.87
45467;BME280;31212;49.734;8.490;2023-02-20T03:02:28;101544.84;;;5.60;84.45
45467;BME280;31212;49.734;8.490;2023-02-20T03:04:57;101544.94;;;5.63;84.55
45467;BME280;31212;49.734;8.490;2023-02-20T03:07:28;101557.13;;;5.67;84.50
45467;BME280;31212;49.734;8.490;2023-02-20T03:10:01;101560.66;;;5.69;84.55
45467;BME280;31212;49.734;8.490;2023-02-20T03:12:35;101560.91;;;5.76;85.31
45467;BME280;31212;49.734;8.490;2023-02-20T03:15:05;101557.16;;;5.88;84.80
45467;BME280;31212;49.734;8.490;2023-02-20T03:17:56;101545.88;;;5.86;84.81
45467;BME280;31212;49.734;8.490;2023-02-20T03:20:30;101549.53;;;5.92;84.57
45467;BME280;31212;49.734;8.490;2023-02-20T03:23:02;101541.81;;;5.92;85.29
45467;BME280;31212;49.734;8.490;2023-02-20T03:25:33;101545.72;;;6.03;85.02
45467;BME280;31212;49.734;8.490;2023-02-20T03:28:04;101532.13;;;6.07;84.94
45467;BME280;31212;49.734;8.490;2023-02-20T03:30:35;101528.75;;;6.08;84.91
45467;BME280;31212;49.734;8.490;2023-02-20T03:33:06;101522.88;;;6.12;84.55
45467;BME280;31212;49.734;8.490;2023-02-20T03:35:55;101539.38;;;6.16;85.01
45467;BME280;31212;49.734;8.490;2023-02-20T03:38:45;101548.59;;;6.11;85.11
45467;BME280;31212;49.734;8.490;2023-02-20T03:41:33;101548.59;;;6.11;84.90
45467;BME280;31212;49.734;8.490;2023-02-20T03:44:19;101546.78;;;6.08;84.72
45467;BME280;31212;49.734;8.490;2023-02-20T03:46:49;101553.50;;;6.04;85.14
45467;BME280;31212;49.734;8.490;2023-02-20T03:49:19;101551.69;;;6.02;84.56
45467;BME280;31212;49.734;8.490;2023-02-20T03:51:46;101566.34;;;6.03;85.04
45467;BME280;31212;49.734;8.490;2023-02-20T03:54:30;101561.06;;;6.00;85.66
45467;BME280;31212;49.734;8.490;2023-02-20T03:57:02;101558.59;;;6.03;85.13
45467;BME280;31212;49.734;8.490;2023-02-20T03:59:32;101561.19;;;6.03;85.51
45467;BME280;31212;49.734;8.490;2023-02-20T04:02:05;101566.06;;;5.97;85.70
45467;BME280;31212;49.734;8.490;2023-02-20T04:04:36;101561.63;;;5.93;85.72
45467;BME280;31212;49.734;8.490;2023-02-20T04:07:08;101563.88;;;5.85;85.42
45467;BME280;31212;49.734;8.490;2023-02-20T04:09:40;101559.03;;;5.71;86.15
45467;BME280;31212;49.734;8.490;2023-02-20T04:12:11;101564.66;;;5.63;86.14
45467;BME280;31212;49.734;8.490;2023-02-20T04:14:42;101571.94;;;5.52;86.70
45467;BME280;31212;49.734;8.490;2023-02-20T04:17:15;101578.72;;;5.50;86.25
45467;BME280;31212;49.734;8.490;2023-02-20T04:19:43;101589.78;;;5.47;86.61
45467;BME280;31212;49.734;8.490;2023-02-20T04:22:16;101586.13;;;5.42;87.01
45467;BME280;31212;49.734;8.490;2023-02-20T04:24:49;101581.41;;;5.32;87.07
45467;BME280;31212;49.734;8.490;2023-02-20T04:27:17;101582.63;;;5.20;87.28
45467;BME280;31212;49.734;8.490;2023-02-20T04:29:50;101592.31;;;5.07;87.52
45467;BME280;31212;49.734;8.490;2023-02-20T04:32:17;101596.38;;;5.01;88.03
45467;BME280;31212;49.734;8.490;2023-02-20T04:34:44;101591.41;;;4.86;88.05
45467;BME280;31212;49.734;8.490;2023-02-20T04:37:12;101588.13;;;4.71;88.03
45467;BME280;31212;49.734;8.490;2023-02-20T04:39:40;101580.44;;;4.53;88.18
45467;BME280;31212;49.734;8.490;2023-02-20T04:42:10;101589.56;;;4.46;88.44
45467;BME280;31212;49.734;8.490;2023-02-20T04:44:38;101589.84;;;4.34;88.63
45467;BME280;31212;49.734;8.490;2023-02-20T04:47:10;101589.44;;;4.25;88.99
45467;BME280;31212;49.734;8.490;2023-02-20T04:49:38;101602.28;;;4.25;89.61
45467;BME280;31212;49.734;8.490;2023-02-20T04:52:07;101604.47;;;4.17;89.61
45467;BME280;31212;49.734;8.490;2023-02-20T04:54:35;101610.22;;;4.12;90.05
45467;BME280;31212;49.734;8.490;2023-02-20T04:57:02;101613.34;;;4.06;90.38
45467;BME280;31212;49.734;8.490;2023-02-20T04:59:30;101619.06;;;4.00;90.60
45467;BME280;31212;49.734;8.490;2023-02-20T05:01:57;101635.00;;;3.93;90.98
45467;BME280;31212;49.734;8.490;2023-02-20T05:04:26;101638.22;;;3.89;91.24
45467;BME280;31212;49.734;8.490;2023-02-20T05:06:54;101632.03;;;3.85;91.47
45467;BME280;31212;49.734;8.490;2023-02-20T05:09:22;101640.53;;;3.84;92.23
45467;BME280;31212;49.734;8.490;2023-02-20T05:11:49;101642.31;;;3.85;92.48
45467;BME280;31212;49.734;8.490;2023-02-20T05:14:15;101642.22;;;3.84;92.72
45467;BME280;31212;49.734;8.490;2023-02-20T05:16:43;101642.97;;;3.81;93.15
45467;BME280;31212;49.734;8.490;2023-02-20T05:19:10;101645.59;;;3.83;93.72
45467;BME280;31212;49.734;8.490;2023-02-20T05:21:40;101654.44;;;3.88;93.98
45467;BME280;31212;49.734;8.490;2023-02-20T05:24:24;101659.88;;;3.94;94.60
45467;BME280;31212;49.734;8.490;2023-02-20T05:26:52;101652.97;;;3.93;94.76
45467;BME280;31212;49.734;8.490;2023-02-20T05:29:19;101658.75;;;3.89;94.44
45467;BME280;31212;49.734;8.490;2023-02-20T05:31:47;101649.78;;;3.81;94.62
45467;BME280;31212;49.734;8.490;2023-02-20T05:34:14;101653.81;;;3.76;94.53
45467;BME280;31212;49.734;8.490;2023-02-20T05:36:40;101650.03;;;3.69;94.66
45467;BME280;31212;49.734;8.490;2023-02-20T05:39:07;101657.34;;;3.61;94.76
45467;BME280;31212;49.734;8.490;2023-02-20T05:41:33;101650.84;;;3.51;94.96
45467;BME280;31212;49.734;8.490;2023-02-20T05:44:00;101654.16;;;3.49;95.02
45467;BME280;31212;49.734;8.490;2023-02-20T05:46:26;101653.81;;;3.43;95.54
45467;BME280;31212;49.734;8.490;2023-02-20T05:48:54;101657.22;;;3.42;95.75
45467;BME280;31212;49.734;8.490;2023-02-20T05:51:23;101658.88;;;3.41;96.63
45467;BME280;31212;49.734;8.490;2023-02-20T05:53:50;101648.31;;;3.35;97.09
45467;BME280;31212;49.734;8.490;2023-02-20T05:56:17;101652.78;;;3.39;97.06
45467;BME280;31212;49.734;8.490;2023-02-20T05:58:44;101660.50;;;3.39;97.29
45467;BME280;31212;49.734;8.490;2023-02-20T06:01:16;101659.38;;;3.34;97.42
45467;BME280;31212;49.734;8.490;2023-02-20T06:03:42;101654.31;;;3.35;97.72
45467;BME280;31212;49.734;8.490;2023-02-20T06:06:10;101656.06;;;3.36;97.95
45467;BME280;31212;49.734;8.490;2023-02-20T06:08:37;101663.44;;;3.30;98.57
45467;BME280;31212;49.734;8.490;2023-02-20T06:11:04;101665.00;;;3.27;98.84
45467;BME280;31212;49.734;8.490;2023-02-20T06:13:30;101660.56;;;3.24;98.89
45467;BME280;31212;49.734;8.490;2023-02-20T06:15:57;101660.81;;;3.29;99.23
45467;BME280;31212;49.734;8.490;2023-02-20T06:18:23;101666.09;;;3.32;99.60
45467;BME280;31212;49.734;8.490;2023-02-20T06:20:50;101667.94;;;3.34;99.59
45467;BME280;31212;49.734;8.490;2023-02-20T06:23:18;101666.34;;;3.36;99.30
45467;BME280;31212;49.734;8.490;2023-02-20T06:25:44;101668.75;;;3.33;99.54
45467;BME280;31212;49.734;8.490;2023-02-20T06:28:11;101664.78;;;3.24;99.57
45467;BME280;31212;49.734;8.490;2023-02-20T06:30:37;101660.72;;;3.27;99.69
45467;BME280;31212;49.734;8.490;2023-02-20T06:33:04;101651.31;;;3.28;99.68
45467;BME280;31212;49.734;8.490;2023-02-20T06:35:30;101652.03;;;3.25;99.54
45467;BME280;31212;49.734;8.490;2023-02-20T06:37:57;101655.59;;;3.27;99.92
45467;BME280;31212;49.734;8.490;2023-02-20T06:40:25;101659.84;;;3.27;100.00
45467;BME280;31212;49.734;8.490;2023-02-20T06:42:52;101661.66;;;3.29;100.00
45467;BME280;31212;49.734;8.490;2023-02-20T06:45:18;101655.19;;;3.36;100.00
45467;BME280;31212;49.734;8.490;2023-02-20T06:47:45;101661.28;;;3.38;99.92
45467;BME280;31212;49.734;8.490;2023-02-20T06:50:11;101670.28;;;3.46;100.00
45467;BME280;31212;49.734;8.490;2023-02-20T06:52:38;101664.66;;;3.53;99.96
45467;BME280;31212;49.734;8.490;2023-02-20T06:55:05;101664.91;;;3.58;100.00
45467;BME280;31212;49.734;8.490;2023-02-20T06:57:33;101657.13;;;3.57;99.58
45467;BME280;31212;49.734;8.490;2023-02-20T07:00:04;101665.13;;;3.63;99.75
45467;BME280;31212;49.734;8.490;2023-02-20T07:02:30;101666.91;;;3.64;99.23
45467;BME280;31212;49.734;8.490;2023-02-20T07:04:57;101666.41;;;3.71;99.50
45467;BME280;31212;49.734;8.490;2023-02-20T07:07:23;101684.47;;;3.73;99.27
45467;BME280;31212;49.734;8.490;2023-02-20T07:09:50;101680.63;;;3.81;99.49
45467;BME280;31212;49.734;8.490;2023-02-20T07:12:16;101681.97;;;3.91;99.11
45467;BME280;31212;49.734;8.490;2023-02-20T07:14:49;101684.09;;;3.99;99.20
45467;BME280;31212;49.734;8.490;2023-02-20T07:17:16;101687.13;;;4.09;98.80
45467;BME280;31212;49.734;8.490;2023-02-20T07:19:45;101689.38;;;4.19;98.87
45467;BME280;31212;49.734;8.490;2023-02-20T07:22:14;101685.41;;;4.26;98.65
45467;BME280;31212;49.734;8.490;2023-02-20T07:24:40;101689.97;;;4.31;97.95
45467;BME280;31212;49.734;8.490;2023-02-20T07:27:07;101683.31;;;4.35;97.67
45467;BME280;31212;49.734;8.490;2023-02-20T07:29:34;101676.31;;;4.32;97.30
45467;BME280;31212;49.734;8.490;2023-02-20T07:32:02;101673.97;;;4.37;97.08
45467;BME280;31212;49.734;8.490;2023-02-20T07:34:29;101678.03;;;4.50;96.97
45467;BME280;31212;49.734;8.490;2023-02-20T07:36:55;101667.34;;;4.60;96.60
45467;BME280;31212;49.734;8.490;2023-02-20T07:39:22;101658.41;;;4.70;96.10
45467;BME280;31212;49.734;8.490;2023-02-20T07:41:50;101650.88;;;4.93;95.53
45467;BME280;31212;49.734;8.490;2023-02-20T07:44:36;101644.16;;;5.14;95.83
45467;BME280;31212;49.734;8.490;2023-02-20T07:47:04;101646.38;;;5.26;95.06
45467;BME280;31212;49.734;8.490;2023-02-20T07:49:33;101634.13;;;5.40;94.02
45467;BME280;31212;49.734;8.490;2023-02-20T07:51:59;101630.31;;;5.71;93.64
45467;BME280;31212;49.734;8.490;2023-02-20T07:54:26;101622.41;;;6.30;92.56
45467;BME280;31212;49.734;8.490;2023-02-20T07:56:53;101570.25;;;6.60;90.45
45467;BME280;31212;49.734;8.490;2023-02-20T07:59:20;101540.31;;;6.63;88.32
45467;BME280;31212;49.734;8.490;2023-02-20T08:01:47;101515.34;;;6.86;87.61
45467;BME280;31212;49.734;8.490;2023-02-20T08:04:15;101485.84;;;7.04;85.46
45467;BME280;31212;49.734;8.490;2023-02-20T08:06:42;101457.56;;;6.83;85.59
45467;BME280;31212;49.734;8.490;2023-02-20T08:09:08;101450.03;;;6.89;85.19
45467;BME280;31212;49.734;8.490;2023-02-20T08:11:36;101434.41;;;7.10;84.60
45467;BME280;31212;49.734;8.490;2023-02-20T08:14:04;101404.91;;;7.29;82.88
45467;BME280;31212;49.734;8.490;2023-02-20T08:16:31;101388.81;;;7.38;82.78
45467;BME280;31212;49.734;8.490;2023-02-20T08:18:58;101377.91;;;7.47;82.40
45467;BME280;31212;49.734;8.490;2023-02-20T08:21:26;101367.03;;;7.30;82.30
45467;BME280;31212;49.734;8.490;2023-02-20T08:23:52;101371.34;;;7.29;81.91
45467;BME280;31212;49.734;8.490;2023-02-20T08:26:19;101363.47;;;7.53;82.38
45467;BME280;31212;49.734;8.490;2023-02-20T08:28:48;101342.00;;;7.85;81.02
45467;BME280;31212;49.734;8.490;2023-02-20T08:31:15;101319.63;;;8.16;80.51
45467;BME280;31212;49.734;8.490;2023-02-20T08:33:42;101289.88;;;8.32;79.51
45467;BME280;31212;49.734;8.490;2023-02-20T08:36:08;101265.44;;;8.54;78.79
45467;BME280;31212;49.734;8.490;2023-02-20T08:38:37;101241.44;;;8.26;78.33
45467;BME280;31212;49.734;8.490;2023-02-20T08:41:04;101248.53;;;8.35;78.60
45467;BME280;31212;49.734;8.490;2023-02-20T08:43:32;101246.34;;;8.85;78.14
45467;BME280;31212;49.734;8.490;2023-02-20T08:45:58;101200.25;;;9.07;77.14
45467;BME280;31212;49.734;8.490;2023-02-20T08:48:25;101155.59;;;9.20;76.33
45467;BME280;31212;49.734;8.490;2023-02-20T08:50:51;101152.41;;;9.32;76.29
45467;BME280;31212;49.734;8.490;2023-02-20T08:53:18;101132.63;;;9.36;75.65
45467;BME280;31212;49.734;8.490;2023-02-20T08:55:46;101122.50;;;9.50;75.10
45467;BME280;31212;49.734;8.490;2023-02-20T08:58:13;101136.16;;;9.87;74.92
45467;BME280;31212;49.734;8.490;2023-02-20T09:00:43;101077.06;;;10.82;72.56
45467;BME280;31212;49.734;8.490;2023-02-20T09:03:10;100937.59;;;11.69;70.30
45467;BME280;31212;49.734;8.490;2023-02-20T09:05:36;100882.16;;;11.81;68.72
45467;BME280;31212;49.734;8.490;2023-02-20T09:08:03;100815.56;;;12.15;67.47
45467;BME280;31212;49.734;8.490;2023-02-20T09:10:30;100779.09;;;12.03;66.45
45467;BME280;31212;49.734;8.490;2023-02-20T09:12:58;100790.09;;;11.49;66.83
45467;BME280;31212;49.734;8.490;2023-02-20T09:15:24;100833.84;;;10.90;67.93
45467;BME280;31212;49.734;8.490;2023-02-20T09:17:51;100915.16;;;10.82;69.45
45467;BME280;31212;49.734;8.490;2023-02-20T09:20:20;100904.00;;;10.90;68.87
45467;BME280;31212;49.734;8.490;2023-02-20T09:22:47;100915.03;;;10.69;68.83
45467;BME280;31212;49.734;8.490;2023-02-20T09:25:14;100892.81;;;10.94;68.79
45467;BME280;31212;49.734;8.490;2023-02-20T09:27:41;100872.19;;;11.16;68.03
45467;BME280;31212;49.734;8.490;2023-02-20T09:30:13;100860.97;;;11.20;67.59
45467;BME280;31212;49.734;8.490;2023-02-20T09:32:41;100829.41;;;12.03;66.61
45467;BME280;31212;49.734;8.490;2023-02-20T09:35:09;100714.06;;;12.89;64.06
45467;BME280;31212;49.734;8.490;2023-02-20T09:37:36;100646.00;;;13.67;62.47
45467;BME280;31212;49.734;8.490;2023-02-20T09:40:03;100511.28;;;14.48;59.76
45467;BME280;31212;49.734;8.490;2023-02-20T09:42:35;100410.88;;;14.74;57.73
45467;BME280;31212;49.734;8.490;2023-02-20T09:45:12;100344.38;;;15.43;56.09
45467;BME280;31212;49.734;8.490;2023-02-20T09:47:59;100356.31;;;14.47;57.02
45467;BME280;31212;49.734;8.490;2023-02-20T09:50:32;100383.16;;;14.59;56.70
45467;BME280;31212;49.734;8.490;2023-02-20T09:53:05;100383.03;;;14.01;57.43
45467;BME280;31212;49.734;8.490;2023-02-20T09:55:38;100417.31;;;13.67;58.36
45467;BME280;31212;49.734;8.490;2023-02-20T09:58:06;100495.06;;;13.11;59.39
45467;BME280;31212;49.734;8.490;2023-02-20T10:00:36;100588.94;;;12.94;60.77
45467;BME280;31212;49.734;8.490;2023-02-20T10:03:12;100652.41;;;12.76;61.76
45467;BME280;31212;49.734;8.490;2023-02-20T10:05:42;100670.66;;;12.82;61.80
45467;BME280;31212;49.734;8.490;2023-02-20T10:08:10;100689.78;;;12.36;62.29
45467;BME280;31212;49.734;8.490;2023-02-20T10:10:41;100732.28;;;12.29;62.98
45467;BME280;31212;49.734;8.490;2023-02-20T10:13:22;100718.41;;;12.79;62.56
45467;BME280;31212;49.734;8.490;2023-02-20T10:15:58;100651.50;;;12.94;61.32
45467;BME280;31212;49.734;8.490;2023-02-20T10:18:35;100655.00;;;12.77;61.54
45467;BME280;31212;49.734;8.490;2023-02-20T10:21:11;100681.06;;;12.79;61.75
45467;BME280;31212;49.734;8.490;2023-02-20T10:23:45;100659.13;;;13.56;60.81
45467;BME280;31212;49.734;8.490;2023-02-20T10:26:17;100583.94;;;14.07;59.47
45467;BME280;31212;49.734;8.490;2023-02-20T10:28:47;100461.13;;;14.93;57.00
45467;BME280;31212;49.734;8.490;2023-02-20T10:31:24;100339.22;;;16.31;54.28
45467;BME280;31212;49.734;8.490;2023-02-20T10:33:58;100229.25;;;16.65;52.77
45467;BME280;31212;49.734;8.490;2023-02-20T10:36:29;100105.34;;;17.80;49.77
45467;BME280;31212;49.734;8.490;2023-02-20T10:39:04;100021.97;;;17.61;48.81
45467;BME280;31212;49.734;8.490;2023-02-20T10:41:35;100016.69;;;17.35;48.69
45467;BME280;31212;49.734;8.490;2023-02-20T10:44:09;99949.72;;;18.02;47.21
45467;BME280;31212;49.734;8.490;2023-02-20T10:46:43;99977.00;;;17.71;47.49
45467;BME280;31212;49.734;8.490;2023-02-20T10:49:15;99949.19;;;17.92;46.81
45467;BME280;31212;49.734;8.490;2023-02-20T10:51:44;99944.44;;;18.52;46.31
45467;BME280;31212;49.734;8.490;2023-02-20T10:54:15;99909.78;;;18.64;45.51
45467;BME280;31212;49.734;8.490;2023-02-20T10:56:50;99936.88;;;18.43;45.78
45467;BME280;31212;49.734;8.490;2023-02-20T10:59:20;99912.97;;;18.96;44.94
45467;BME280;31212;49.734;8.490;2023-02-20T11:01:54;99889.88;;;19.25;44.22
45467;BME280;31212;49.734;8.490;2023-02-20T11:04:24;99856.88;;;19.39;43.49
45467;BME280;31212;49.734;8.490;2023-02-20T11:06:55;99823.84;;;19.52;43.11
45467;BME280;31212;49.734;8.490;2023-02-20T11:09:22;99801.84;;;19.53;42.86
45467;BME280;31212;49.734;8.490;2023-02-20T11:11:52;99840.47;;;19.53;43.29
45467;BME280;31212;49.734;8.490;2023-02-20T11:14:22;99767.84;;;18.85;42.91
45467;BME280;31212;49.734;8.490;2023-02-20T11:16:55;99847.38;;;18.92;43.42
45467;BME280;31212;49.734;8.490;2023-02-20T11:19:27;99824.41;;;18.29;43.86
45467;BME280;31212;49.734;8.490;2023-02-20T11:21:55;99898.94;;;17.76;45.17
45467;BME280;31212;49.734;8.490;2023-02-20T11:24:30;99900.75;;;17.48;45.19
45467;BME280;31212;49.734;8.490;2023-02-20T11:27:00;100006.06;;;17.09;46.88
45467;BME280;31212;49.734;8.490;2023-02-20T11:29:33;100032.25;;;17.11;46.91
45467;BME280;31212;49.734;8.490;2023-02-20T11:32:19;100011.47;;;17.03;46.83
45467;BME280;31212;49.734;8.490;2023-02-20T11:34:47;100042.16;;;17.01;47.31
45467;BME280;31212;49.734;8.490;2023-02-20T11:37:14;99983.50;;;16.74;46.95
45467;BME280;31212;49.734;8.490;2023-02-20T11:39:45;99966.47;;;16.26;47.06
45467;BME280;31212;49.734;8.490;2023-02-20T11:42:15;99986.88;;;16.14;47.30
45467;BME280;31212;49.734;8.490;2023-02-20T11:44:42;99992.41;;;15.68;48.37
45467;BME280;31212;49.734;8.490;2023-02-20T11:47:26;99961.22;;;15.58;47.86
45467;BME280;31212;49.734;8.490;2023-02-20T11:50:15;99976.34;;;15.47;48.15
45467;BME280;31212;49.734;8.490;2023-02-20T11:52:55;100040.34;;;15.32;48.68
45467;BME280;31212;49.734;8.490;2023-02-20T11:55:23;100038.69;;;15.28;48.97
45467;BME280;31212;49.734;8.490;2023-02-20T11:57:50;100019.16;;;15.43;48.64
45467;BME280;31212;49.734;8.490;2023-02-20T12:00:20;100050.78;;;15.71;48.35
45467;BME280;31212;49.734;8.490;2023-02-20T12:02:52;99960.38;;;15.58;47.89
45467;BME280;31212;49.734;8.490;2023-02-20T12:05:19;99955.66;;;15.36;47.55
45467;BME280;31212;49.734;8.490;2023-02-20T12:07:57;100023.13;;;15.59;48.58
45467;BME280;31212;49.734;8.490;2023-02-20T12:10:35;99986.06;;;15.78;47.65
45467;BME280;31212;49.734;8.490;2023-02-20T12:13:04;99988.72;;;15.76;47.66
45467;BME280;31212;49.734;8.490;2023-02-20T12:15:32;99977.50;;;15.71;48.13
45467;BME280;31212;49.734;8.490;2023-02-20T12:18:12;99951.66;;;15.57;47.85
45467;BME280;31212;49.734;8.490;2023-02-20T12:20:44;100033.84;;;15.48;48.65
45467;BME280;31212;49.734;8.490;2023-02-20T12:23:19;100054.16;;;15.76;48.61
45467;BME280;31212;49.734;8.490;2023-02-20T12:25:55;100107.56;;;16.05;48.72
45467;BME280;31212;49.734;8.490;2023-02-20T12:28:33;100000.03;;;15.77;48.37
45467;BME280;31212;49.734;8.490;2023-02-20T12:31:12;100066.34;;;16.13;48.43
45467;BME280;31212;49.734;8.490;2023-02-20T12:34:05;99994.13;;;16.05;47.97
45467;BME280;31212;49.734;8.490;2023-02-20T12:36:39;99962.72;;;16.03;47.82
45467;BME280;31212;49.734;8.490;2023-02-20T12:39:10;99960.09;;;15.69;48.32
45467;BME280;31212;49.734;8.490;2023-02-20T12:41:49;99949.03;;;15.59;48.00
45467;BME280;31212;49.734;8.490;2023-02-20T12:44:55;99943.00;;;15.55;47.94
45467;BME280;31212;49.734;8.490;2023-02-20T12:47:29;99998.59;;;15.63;48.79
45467;BME280;31212;49.734;8.490;2023-02-20T12:50:11;99932.53;;;15.55;47.67
45467;BME280;31212;49.734;8.490;2023-02-20T12:52:51;99904.31;;;15.67;47.53
45467;BME280;31212;49.734;8.490;2023-02-20T12:55:24;99808.19;;;15.42;46.79
45467;BME280;31212;49.734;8.490;2023-02-20T12:58:01;99823.63;;;15.17;46.92
45467;BME280;31212;49.734;8.490;2023-02-20T13:00:32;99831.91;;;15.00;47.18
45467;BME280;31212;49.734;8.490;2023-02-20T13:03:06;99889.25;;;15.06;47.79
45467;BME280;31212;49.734;8.490;2023-02-20T13:05:37;99898.16;;;14.99;47.94
45467;BME280;31212;49.734;8.490;2023-02-20T13:08:09;99934.81;;;14.95;48.54
45467;BME280;31212;49.734;8.490;2023-02-20T13:10:47;99929.22;;;14.72;48.90
45467;BME280;31212;49.734;8.490;2023-02-20T13:13:15;99954.00;;;14.52;49.20
45467;BME280;31212;49.734;8.490;2023-02-20T13:15:49;100002.78;;;14.50;49.78
45467;BME280;31212;49.734;8.490;2023-02-20T13:18:23;100002.09;;;14.42;50.01